createdAt,value
2022-11-24T00:01:20.963Z,19.15
2022-11-24T00:04:03.551Z,23.20
2022-11-24T00:06:32.431Z,18.45
2022-11-24T00:09:00.191Z,24.42
2022-11-24T00:11:31.279Z,22.48
2022-11-24T00:13:59.553Z,20.02
2022-11-24T00:16:30.099Z,19.60
2022-11-24T00:18:59.530Z,24.02
2022-11-24T00:21:28.453Z,23.88
2022-11-24T00:23:55.939Z,21.42
2022-11-24T00:26:32.227Z,27.35
2022-11-24T00:29:02.607Z,23.08
2022-11-24T00:31:32.520Z,23.67
2022-11-24T00:34:02.365Z,25.80
2022-11-24T00:36:31.660Z,22.90
2022-11-24T00:39:04.935Z,19.80
2022-11-24T00:41:32.590Z,20.67
2022-11-24T00:44:00.784Z,28.23
2022-11-24T00:46:28.628Z,18.85
2022-11-24T00:48:56.705Z,22.50
2022-11-24T00:51:30.141Z,23.02
2022-11-24T00:53:58.938Z,25.75
2022-11-24T00:56:27.766Z,29.42
2022-11-24T00:58:55.158Z,23.80
2022-11-24T01:01:25.762Z,21.88
2022-11-24T01:03:53.158Z,23.67
2022-11-24T01:06:22.847Z,20.77
2022-11-24T01:08:50.490Z,22.73
2022-11-24T01:11:21.023Z,20.70
2022-11-24T01:13:51.807Z,18.92
2022-11-24T01:16:39.105Z,24.58
2022-11-24T01:19:06.694Z,20.42
2022-11-24T01:21:33.944Z,25.35
2022-11-24T01:24:01.641Z,19.42
2022-11-24T01:26:28.874Z,21.60
2022-11-24T01:28:57.741Z,19.38
2022-11-24T01:31:26.547Z,16.90
2022-11-24T01:33:54.517Z,19.10
2022-11-24T01:36:22.348Z,20.35
2022-11-24T01:38:49.592Z,15.95
2022-11-24T01:41:26.685Z,19.48
2022-11-24T01:43:55.748Z,22.90
2022-11-24T01:46:53.968Z,27.05
2022-11-24T01:49:36.982Z,17.92
2022-11-24T01:52:14.370Z,21.17
2022-11-24T01:54:48.714Z,20.65
2022-11-24T01:57:16.025Z,21.87
2022-11-24T01:59:45.502Z,26.27
2022-11-24T02:02:13.663Z,17.80
2022-11-24T02:04:42.292Z,17.15
2022-11-24T02:07:09.943Z,16.33
2022-11-24T02:09:53.269Z,21.45
2022-11-24T02:12:21.832Z,17.70
2022-11-24T02:14:49.333Z,23.13
2022-11-24T02:17:16.734Z,17.75
2022-11-24T02:19:49.795Z,21.35
2022-11-24T02:22:32.090Z,17.77
2022-11-24T02:25:04.105Z,23.85
2022-11-24T02:27:31.684Z,16.38
2022-11-24T02:29:59.714Z,17.73
2022-11-24T02:32:28.622Z,19.95
2022-11-24T02:35:06.470Z,17.10
2022-11-24T02:37:33.706Z,19.60
2022-11-24T02:40:00.949Z,20.92
2022-11-24T02:42:34.759Z,21.05
2022-11-24T02:45:02.631Z,21.30
2022-11-24T02:47:29.874Z,14.73
2022-11-24T02:49:57.090Z,17.63
2022-11-24T02:52:24.283Z,22.67
2022-11-24T02:54:51.468Z,23.95
2022-11-24T02:57:18.663Z,15.20
2022-11-24T02:59:47.037Z,23.25
2022-11-24T03:02:14.193Z,17.83
2022-11-24T03:04:41.576Z,18.80
2022-11-24T03:07:08.864Z,15.85
2022-11-24T03:09:36.274Z,16.98
2022-11-24T03:12:03.590Z,21.25
2022-11-24T03:14:30.605Z,32.50
2022-11-24T03:16:57.849Z,16.38
2022-11-24T03:19:25.015Z,21.75
2022-11-24T03:21:52.445Z,17.27
2022-11-24T03:24:19.738Z,19.58
2022-11-24T03:26:46.939Z,23.13
2022-11-24T03:29:14.214Z,30.52
2022-11-24T03:31:41.447Z,17.40
2022-11-24T03:34:08.946Z,24.08
2022-11-24T03:36:36.225Z,27.85
2022-11-24T03:39:03.853Z,30.35
2022-11-24T03:41:31.558Z,15.48
2022-11-24T03:43:59.031Z,18.67
2022-11-24T03:46:26.497Z,27.02
2022-11-24T03:48:53.897Z,21.73
2022-11-24T03:51:21.220Z,23.52
2022-11-24T03:53:48.467Z,20.63
2022-11-24T03:56:15.769Z,25.60
2022-11-24T03:58:43.429Z,20.05
2022-11-24T04:01:10.813Z,17.50
2022-11-24T04:03:38.047Z,30.23
2022-11-24T04:06:05.391Z,20.55
2022-11-24T04:08:32.727Z,25.23
2022-11-24T04:11:00.402Z,21.25
2022-11-24T04:13:28.284Z,26.33
2022-11-24T04:15:55.598Z,24.42
2022-11-24T04:18:23.193Z,18.50
2022-11-24T04:20:51.294Z,25.48
2022-11-24T04:23:18.867Z,23.38
2022-11-24T04:25:46.255Z,22.60
2022-11-24T04:28:13.479Z,24.10
2022-11-24T04:30:45.126Z,18.23
2022-11-24T04:33:12.954Z,24.23
2022-11-24T04:35:40.287Z,23.83
2022-11-24T04:38:07.448Z,27.35
2022-11-24T04:40:35.245Z,22.42
2022-11-24T04:43:02.615Z,23.05
2022-11-24T04:45:29.956Z,27.98
2022-11-24T04:47:57.235Z,19.83
2022-11-24T04:50:24.454Z,20.65
2022-11-24T04:52:51.722Z,24.70
2022-11-24T04:55:19.110Z,24.98
2022-11-24T04:57:46.436Z,20.83
2022-11-24T05:00:14.391Z,30.80
2022-11-24T05:02:41.724Z,26.77
2022-11-24T05:05:09.470Z,21.50
2022-11-24T05:07:36.712Z,22.45
2022-11-24T05:10:29.948Z,27.10
2022-11-24T05:12:59.709Z,21.40
2022-11-24T05:15:27.269Z,25.92
2022-11-24T05:17:55.765Z,20.65
2022-11-24T05:20:23.311Z,25.73
2022-11-24T05:22:50.882Z,29.20
2022-11-24T05:25:18.185Z,24.02
2022-11-24T05:27:45.421Z,26.88
2022-11-24T05:30:13.311Z,28.80
2022-11-24T05:32:40.545Z,35.92
2022-11-24T05:35:09.933Z,23.90
2022-11-24T05:37:37.912Z,24.50
2022-11-24T05:40:07.270Z,33.05
2022-11-24T05:42:47.599Z,23.13
2022-11-24T05:45:20.440Z,25.42
2022-11-24T05:47:49.145Z,26.20
2022-11-24T05:50:18.826Z,24.65
2022-11-24T05:52:46.195Z,23.98
2022-11-24T05:55:15.375Z,27.58
2022-11-24T05:57:43.062Z,29.70
2022-11-24T06:00:11.716Z,27.13
2022-11-24T06:02:39.229Z,27.08
2022-11-24T06:05:06.574Z,23.77
2022-11-24T06:07:34.023Z,30.52
2022-11-24T06:10:01.143Z,21.10
2022-11-24T06:12:28.505Z,24.55
2022-11-24T06:14:55.613Z,25.30
2022-11-24T06:17:22.818Z,26.33
2022-11-24T06:19:51.809Z,21.02
2022-11-24T06:22:19.664Z,27.65
2022-11-24T06:24:47.368Z,27.88
2022-11-24T06:27:14.897Z,26.92
2022-11-24T06:29:42.423Z,22.65
2022-11-24T06:32:09.926Z,26.98
2022-11-24T06:34:37.204Z,27.27
2022-11-24T06:37:04.708Z,22.45
2022-11-24T06:39:31.908Z,26.95
2022-11-24T06:41:59.051Z,23.50
2022-11-24T06:44:26.236Z,23.52
2022-11-24T06:46:53.541Z,30.02
2022-11-24T06:49:20.920Z,30.45
2022-11-24T06:51:48.300Z,25.85
2022-11-24T06:54:18.876Z,27.00
2022-11-24T06:56:46.476Z,21.27
2022-11-24T06:59:19.027Z,28.60
2022-11-24T07:01:47.164Z,22.38
2022-11-24T07:04:15.405Z,29.92
2022-11-24T07:06:43.262Z,28.75
2022-11-24T07:09:12.080Z,25.77
2022-11-24T07:11:40.070Z,19.75
2022-11-24T07:14:07.501Z,24.55
2022-11-24T07:16:35.328Z,24.67
2022-11-24T07:19:02.686Z,27.50
2022-11-24T07:21:31.333Z,22.23
2022-11-24T07:23:59.098Z,26.75
2022-11-24T07:26:26.766Z,29.98
2022-11-24T07:28:54.544Z,24.40
2022-11-24T07:31:25.297Z,24.60
2022-11-24T07:33:54.119Z,25.70
2022-11-24T07:36:22.608Z,20.02
2022-11-24T07:38:50.101Z,26.02
2022-11-24T07:41:19.687Z,24.60
2022-11-24T07:43:48.038Z,28.15
2022-11-24T07:46:16.900Z,29.90
2022-11-24T07:48:44.485Z,25.75
2022-11-24T07:51:11.986Z,31.90
2022-11-24T07:53:39.598Z,27.80
2022-11-24T07:56:07.209Z,26.23
2022-11-24T07:58:36.963Z,33.20
2022-11-24T08:01:15.305Z,25.73
2022-11-24T08:03:43.499Z,25.13
2022-11-24T08:06:31.888Z,27.65
2022-11-24T08:08:59.421Z,25.48
2022-11-24T08:11:27.361Z,40.47
2022-11-24T08:13:54.772Z,29.58
2022-11-24T08:16:22.173Z,30.02
2022-11-24T08:18:54.542Z,34.28
2022-11-24T08:21:23.497Z,28.35
2022-11-24T08:23:54.752Z,27.85
2022-11-24T08:26:22.038Z,28.92
2022-11-24T08:28:55.094Z,31.55
2022-11-24T08:31:22.628Z,27.63
2022-11-24T08:33:49.769Z,35.42
2022-11-24T08:36:19.396Z,24.83
2022-11-24T08:38:49.130Z,26.92
2022-11-24T08:41:17.881Z,34.17
2022-11-24T08:43:45.050Z,23.30
2022-11-24T08:46:17.265Z,25.23
2022-11-24T08:48:47.981Z,21.95
2022-11-24T08:51:17.433Z,23.88
2022-11-24T08:53:44.828Z,29.30
2022-11-24T08:56:13.327Z,31.23
2022-11-24T08:58:41.608Z,26.75
2022-11-24T09:01:14.945Z,27.27
2022-11-24T09:03:50.036Z,36.15
2022-11-24T09:06:23.729Z,27.48
2022-11-24T09:08:52.800Z,27.92
2022-11-24T09:11:20.518Z,21.50
2022-11-24T09:13:47.697Z,27.95
2022-11-24T09:16:17.907Z,27.38
2022-11-24T09:18:45.414Z,28.83
2022-11-24T09:21:22.039Z,27.48
2022-11-24T09:23:51.560Z,28.13
2022-11-24T09:26:21.520Z,22.25
2022-11-24T09:28:50.511Z,30.15
2022-11-24T09:31:18.659Z,38.05
2022-11-24T09:33:46.012Z,29.70
2022-11-24T09:36:14.152Z,26.80
2022-11-24T09:38:41.974Z,28.83
2022-11-24T09:41:37.830Z,31.38
2022-11-24T09:44:42.123Z,32.10
2022-11-24T09:47:30.136Z,30.02
2022-11-24T09:50:03.516Z,24.10
2022-11-24T09:52:42.295Z,42.13
2022-11-24T09:55:44.691Z,27.83
2022-11-24T09:58:31.583Z,30.27
2022-11-24T10:00:59.487Z,33.08
2022-11-24T10:03:35.696Z,25.95
2022-11-24T10:06:16.508Z,32.15
2022-11-24T10:09:06.691Z,27.05
2022-11-24T10:11:54.061Z,26.50
2022-11-24T10:14:48.313Z,25.35
2022-11-24T10:17:21.544Z,25.88
2022-11-24T10:19:58.271Z,27.38
2022-11-24T10:23:02.888Z,29.98
2022-11-24T10:25:52.694Z,27.27
2022-11-24T10:28:19.967Z,33.15
2022-11-24T10:30:47.162Z,28.25
2022-11-24T10:33:14.309Z,23.27
2022-11-24T10:35:52.395Z,29.38
2022-11-24T10:38:34.480Z,30.88
2022-11-24T10:41:25.527Z,30.27
2022-11-24T10:43:53.129Z,31.50
2022-11-24T10:46:25.855Z,31.70
2022-11-24T10:49:01.754Z,32.83
2022-11-24T10:51:36.604Z,25.05
2022-11-24T10:54:15.313Z,26.65
2022-11-24T10:56:44.309Z,26.00
2022-11-24T10:59:32.505Z,26.58
2022-11-24T11:02:00.318Z,26.95
2022-11-24T11:04:35.786Z,23.52
2022-11-24T11:07:21.175Z,28.00
2022-11-24T11:09:49.214Z,35.55
2022-11-24T11:12:43.456Z,27.35
2022-11-24T11:15:29.322Z,24.92
2022-11-24T11:17:59.237Z,30.67
2022-11-24T11:20:32.599Z,31.92
2022-11-24T11:23:04.076Z,31.88
2022-11-24T11:25:35.592Z,27.85
2022-11-24T11:28:30.120Z,33.58
2022-11-24T11:31:22.020Z,24.75
2022-11-24T11:34:23.496Z,25.30
2022-11-24T11:36:56.519Z,20.30
2022-11-24T11:39:48.887Z,25.30
2022-11-24T11:43:01.277Z,25.00
2022-11-24T11:45:46.787Z,19.38
2022-11-24T11:48:15.367Z,26.73
2022-11-24T11:51:22.411Z,22.77
2022-11-24T11:54:00.521Z,24.98
2022-11-24T11:56:36.558Z,23.30
2022-11-24T11:59:25.395Z,21.63
2022-11-24T12:02:19.361Z,23.50
2022-11-24T12:05:40.267Z,28.25
2022-11-24T12:08:22.273Z,25.40
2022-11-24T12:11:17.474Z,24.15
2022-11-24T12:13:53.518Z,21.05
2022-11-24T12:16:41.994Z,23.80
2022-11-24T12:19:15.153Z,27.67
2022-11-24T12:21:52.555Z,19.45
2022-11-24T12:24:30.849Z,24.08
2022-11-24T12:27:11.733Z,30.90
2022-11-24T12:29:54.682Z,23.77
2022-11-24T12:32:52.826Z,25.38
2022-11-24T12:35:29.628Z,29.80
2022-11-24T12:38:21.486Z,17.33
2022-11-24T12:41:46.592Z,23.55
2022-11-24T12:44:31.838Z,22.65
2022-11-24T12:47:51.335Z,22.17
2022-11-24T12:50:21.216Z,35.13
2022-11-24T12:52:58.591Z,22.90
2022-11-24T12:55:27.990Z,21.67
2022-11-24T12:58:21.369Z,28.30
2022-11-24T13:01:28.863Z,21.00
2022-11-24T13:04:33.099Z,21.35
2022-11-24T13:07:41.026Z,21.27
2022-11-24T13:13:16.283Z,23.20
2022-11-24T13:19:00.697Z,23.67
2022-11-24T13:21:27.986Z,24.58
2022-11-24T13:23:58.418Z,19.08
2022-11-24T13:26:52.890Z,25.88
2022-11-24T13:29:33.984Z,19.67
2022-11-24T13:32:06.790Z,23.13
2022-11-24T13:34:43.137Z,20.60
2022-11-24T13:37:33.721Z,26.88
2022-11-24T13:40:26.716Z,26.33
2022-11-24T13:42:57.536Z,17.40
2022-11-24T13:45:40.343Z,23.67
2022-11-24T13:48:20.630Z,29.90
2022-11-24T13:50:51.321Z,28.08
2022-11-24T13:53:26.610Z,21.88
2022-11-24T13:56:14.251Z,21.95
2022-11-24T13:58:45.691Z,20.55
2022-11-24T14:01:19.029Z,17.80
2022-11-24T14:06:51.982Z,23.88
2022-11-24T14:09:24.352Z,22.20
2022-11-24T14:12:21.631Z,18.08
2022-11-24T14:14:50.951Z,25.27
2022-11-24T14:17:27.889Z,24.63
2022-11-24T14:19:56.432Z,41.45
2022-11-24T14:22:40.506Z,23.20
2022-11-24T14:25:28.443Z,19.92
2022-11-24T14:27:55.929Z,18.67
2022-11-24T14:30:24.979Z,22.67
2022-11-24T14:33:00.191Z,32.13
2022-11-24T14:35:31.513Z,23.50
2022-11-24T14:37:59.728Z,27.27
2022-11-24T14:40:52.175Z,22.38
2022-11-24T14:43:31.279Z,23.52
2022-11-24T14:46:18.160Z,24.58
2022-11-24T14:48:53.409Z,21.80
2022-11-24T14:51:24.403Z,22.17
2022-11-24T14:54:03.810Z,18.70
2022-11-24T14:56:37.800Z,47.63
2022-11-24T14:59:21.138Z,24.05
2022-11-24T15:01:48.305Z,19.40
2022-11-24T15:04:38.807Z,24.00
2022-11-24T15:07:25.905Z,23.42
2022-11-24T15:09:58.685Z,22.15
2022-11-24T15:12:48.547Z,26.33
2022-11-24T15:15:15.696Z,28.75
2022-11-24T15:17:48.224Z,34.03
2022-11-24T15:20:21.742Z,23.25
2022-11-24T15:22:52.628Z,16.95
2022-11-24T15:25:32.630Z,28.70
2022-11-24T15:28:00.988Z,19.38
2022-11-24T15:30:28.619Z,22.67
2022-11-24T15:32:57.640Z,24.13
2022-11-24T15:35:26.657Z,21.83
2022-11-24T15:37:54.023Z,27.05
2022-11-24T15:40:21.256Z,25.02
2022-11-24T15:42:54.302Z,18.83
2022-11-24T15:45:23.379Z,23.17
2022-11-24T15:47:51.239Z,23.30
2022-11-24T15:50:22.044Z,25.52
2022-11-24T15:52:49.571Z,24.02
2022-11-24T15:55:22.000Z,28.60
2022-11-24T15:57:50.032Z,30.75
2022-11-24T16:00:22.501Z,25.27
2022-11-24T16:02:50.097Z,19.25
2022-11-24T16:05:19.324Z,21.77
2022-11-24T16:07:46.633Z,22.38
2022-11-24T16:10:37.034Z,26.88
2022-11-24T16:13:04.624Z,24.60
2022-11-24T16:15:31.873Z,23.00
2022-11-24T16:17:59.299Z,18.85
2022-11-24T16:20:26.550Z,19.55
2022-11-24T16:22:54.941Z,17.98
2022-11-24T16:25:22.214Z,16.63
2022-11-24T16:27:49.363Z,18.83
2022-11-24T16:30:16.763Z,23.80
2022-11-24T16:32:44.004Z,25.15
2022-11-24T16:35:11.520Z,17.75
2022-11-24T16:37:41.623Z,22.40
2022-11-24T16:40:09.808Z,21.77
2022-11-24T16:42:37.003Z,22.52
2022-11-24T16:45:04.537Z,31.67
2022-11-24T16:47:31.693Z,41.53
2022-11-24T16:49:59.198Z,48.78
2022-11-24T16:52:26.333Z,32.92
2022-11-24T16:54:53.524Z,35.65
2022-11-24T16:57:20.767Z,56.40
2022-11-24T16:59:47.993Z,66.38
2022-11-24T17:02:15.552Z,39.35
2022-11-24T17:04:42.818Z,43.05
2022-11-24T17:07:10.149Z,33.42
2022-11-24T17:09:40.555Z,30.10
2022-11-24T17:12:08.526Z,56.47
2022-11-24T17:14:36.207Z,36.72
2022-11-24T17:17:06.468Z,53.22
2022-11-24T17:19:33.811Z,61.40
2022-11-24T17:22:00.858Z,43.78
2022-11-24T17:24:28.205Z,34.35
2022-11-24T17:26:55.554Z,102.57
2022-11-24T17:29:22.769Z,133.45
2022-11-24T17:31:50.124Z,87.75
2022-11-24T17:34:17.213Z,129.10
2022-11-24T17:36:46.267Z,46.67
2022-11-24T17:39:13.878Z,43.83
2022-11-24T17:41:41.050Z,24.27
2022-11-24T17:44:08.992Z,21.08
2022-11-24T17:46:37.465Z,35.65
2022-11-24T17:49:06.849Z,20.13
2022-11-24T17:51:34.363Z,30.33
2022-11-24T17:54:13.620Z,55.05
2022-11-24T17:56:48.795Z,83.72
2022-11-24T17:59:16.340Z,116.93
2022-11-24T18:01:44.159Z,93.05
2022-11-24T18:04:11.361Z,93.22
2022-11-24T18:06:39.123Z,63.17
2022-11-24T18:09:06.706Z,66.00
2022-11-24T18:11:34.111Z,19.85
2022-11-24T18:14:03.744Z,88.60
2022-11-24T18:16:35.124Z,59.97
2022-11-24T18:19:09.158Z,56.10
2022-11-24T18:21:41.608Z,62.10
2022-11-24T18:24:10.454Z,118.07
2022-11-24T18:26:38.265Z,81.25
2022-11-24T18:29:05.544Z,74.10
2022-11-24T18:31:35.817Z,91.43
2022-11-24T18:34:04.757Z,92.53
2022-11-24T18:36:32.023Z,55.30
2022-11-24T18:39:07.655Z,53.83
2022-11-24T18:41:35.419Z,79.35
2022-11-24T18:44:03.635Z,103.97
2022-11-24T18:46:30.870Z,98.70
2022-11-24T18:48:58.013Z,108.57
2022-11-24T18:51:25.542Z,71.25
2022-11-24T18:54:00.178Z,89.07
2022-11-24T18:56:27.741Z,63.40
2022-11-24T18:58:56.866Z,57.08
2022-11-24T19:01:26.905Z,71.55
2022-11-24T19:03:57.088Z,21.23
2022-11-24T19:06:35.347Z,34.88
2022-11-24T19:09:07.923Z,29.10
2022-11-24T19:11:37.349Z,57.78
2022-11-24T19:14:06.381Z,92.82
2022-11-24T19:16:34.172Z,35.35
2022-11-24T19:19:02.769Z,53.97
2022-11-24T19:21:35.991Z,38.70
2022-11-24T19:24:05.622Z,51.15
2022-11-24T19:26:35.508Z,27.23
2022-11-24T19:29:03.810Z,36.10
2022-11-24T19:31:31.363Z,33.28
2022-11-24T19:34:00.060Z,32.08
2022-11-24T19:36:27.402Z,42.67
2022-11-24T19:38:56.359Z,31.55
2022-11-24T19:41:29.499Z,25.95
2022-11-24T19:43:58.323Z,26.45
2022-11-24T19:46:27.825Z,32.25
2022-11-24T19:48:57.259Z,24.70
2022-11-24T19:51:43.641Z,38.70
2022-11-24T19:54:15.042Z,36.45
2022-11-24T19:56:42.332Z,27.15
2022-11-24T19:59:13.495Z,30.25
2022-11-24T20:01:41.627Z,46.92
2022-11-24T20:04:15.311Z,35.20
2022-11-24T20:06:45.196Z,33.00
2022-11-24T20:09:14.532Z,28.75
2022-11-24T20:11:42.498Z,29.75
2022-11-24T20:14:12.769Z,23.80
2022-11-24T20:16:40.299Z,29.10
2022-11-24T20:19:11.412Z,33.50
2022-11-24T20:21:39.496Z,49.47
2022-11-24T20:24:18.714Z,30.38
2022-11-24T20:26:52.372Z,35.97
2022-11-24T20:29:20.410Z,54.15
2022-11-24T20:31:50.402Z,48.38
2022-11-24T20:34:18.093Z,27.95
2022-11-24T20:36:46.990Z,35.13
2022-11-24T20:39:17.419Z,23.83
2022-11-24T20:41:45.744Z,36.30
2022-11-24T20:44:16.237Z,48.30
2022-11-24T20:46:45.255Z,34.75
2022-11-24T20:49:15.696Z,41.90
2022-11-24T20:51:47.275Z,48.78
2022-11-24T20:54:16.776Z,47.33
2022-11-24T20:56:46.839Z,52.35
2022-11-24T20:59:25.033Z,46.92
2022-11-24T21:01:55.544Z,32.55
2022-11-24T21:04:25.306Z,39.85
2022-11-24T21:06:52.971Z,30.77
2022-11-24T21:09:20.583Z,49.97
2022-11-24T21:11:47.756Z,55.03
2022-11-24T21:14:16.953Z,35.72
2022-11-24T21:16:44.904Z,30.63
2022-11-24T21:19:14.551Z,32.90
2022-11-24T21:21:43.178Z,42.60
2022-11-24T21:24:13.785Z,34.70
2022-11-24T21:26:42.720Z,42.30
2022-11-24T21:29:14.581Z,22.73
2022-11-24T21:31:41.967Z,21.00
2022-11-24T21:34:09.775Z,18.52
2022-11-24T21:36:40.349Z,19.73
2022-11-24T21:39:07.594Z,13.93
2022-11-24T21:41:34.829Z,13.57
2022-11-24T21:44:02.455Z,14.93
2022-11-24T21:46:40.561Z,13.10
2022-11-24T21:49:11.534Z,16.80
2022-11-24T21:51:38.723Z,17.80
2022-11-24T21:54:06.017Z,19.15
2022-11-24T21:56:33.102Z,14.95
2022-11-24T21:59:00.628Z,14.82
2022-11-24T22:01:28.770Z,17.88
2022-11-24T22:03:56.693Z,16.15
2022-11-24T22:06:24.620Z,14.80
2022-11-24T22:08:51.897Z,14.98
2022-11-24T22:11:24.486Z,17.92
2022-11-24T22:13:52.330Z,15.07
2022-11-24T22:16:22.400Z,18.98
2022-11-24T22:18:50.063Z,17.60
2022-11-24T22:21:19.657Z,18.23
2022-11-24T22:23:50.509Z,19.15
2022-11-24T22:26:20.585Z,16.92
2022-11-24T22:28:48.218Z,18.95
2022-11-24T22:31:21.236Z,17.85
2022-11-24T22:33:50.060Z,15.60
2022-11-24T22:36:18.732Z,18.50
2022-11-24T22:38:45.981Z,18.75
2022-11-24T22:41:15.986Z,17.10
2022-11-24T22:43:44.682Z,15.07
2022-11-24T22:46:14.619Z,20.77
2022-11-24T22:48:42.358Z,18.27
2022-11-24T22:51:18.485Z,22.90
2022-11-24T22:53:51.782Z,17.10
2022-11-24T22:56:20.098Z,16.60
2022-11-24T22:58:48.167Z,24.88
2022-11-24T23:01:18.645Z,28.85
2022-11-24T23:03:46.381Z,19.40
2022-11-24T23:06:15.592Z,13.90
2022-11-24T23:08:43.682Z,26.85
2022-11-24T23:11:14.083Z,18.75
2022-11-24T23:13:42.110Z,13.02
2022-11-24T23:16:17.787Z,19.88
2022-11-24T23:18:51.002Z,14.30
2022-11-24T23:21:27.072Z,16.30
2022-11-24T23:23:54.712Z,17.15
2022-11-24T23:26:27.858Z,20.45
2022-11-24T23:28:55.269Z,19.35
2022-11-24T23:31:27.614Z,18.10
2022-11-24T23:34:05.006Z,18.13
2022-11-24T23:36:33.018Z,14.10
2022-11-24T23:39:11.431Z,17.30
2022-11-24T23:41:38.831Z,20.30
2022-11-24T23:44:06.740Z,19.10
2022-11-24T23:46:34.472Z,19.80
2022-11-24T23:49:01.764Z,18.52
2022-11-24T23:51:31.168Z,23.00
2022-11-24T23:53:59.193Z,22.25
2022-11-24T23:56:33.363Z,18.83
2022-11-24T23:59:02.071Z,18.37
